Time;durP1;ratioP1;P1;durP2;ratioP2;P2;SDS_P1;SDS_P2;PMS_P1;PMS_P2;Temp;Humidity;BMP_temperature;BMP_pressure;BME280_temperature;BME280_humidity;BME280_pressure;Samples;Min_cycle;Max_cycle;Signal;HPM_P1;HPM_P2
2023/04/03 00:01:07;;;;;;;24.10;18.02;;;;;;;-0.61;100.00;102872.44;5055119;28;20017;-52
2023/04/03 00:03:32;;;;;;;20.80;18.60;;;;;;;-0.56;100.00;102871.28;5054918;28;20055;-53
2023/04/03 00:06:00;;;;;;;23.02;18.30;;;;;;;-0.65;100.00;102880.44;5053051;28;20575;-52
2023/04/03 00:08:25;;;;;;;21.90;19.58;;;;;;;-0.59;100.00;102878.56;5055317;28;20021;-53
2023/04/03 00:10:51;;;;;;;30.88;20.77;;;;;;;-0.47;100.00;102876.44;5054898;28;20388;-53
2023/04/03 00:13:16;;;;;;;26.45;20.58;;;;;;;-0.42;100.00;102881.25;5054015;28;20124;-53
2023/04/03 00:15:42;;;;;;;23.35;20.02;;;;;;;-0.36;100.00;102881.03;5054859;28;20027;-52
2023/04/03 00:18:08;;;;;;;25.38;18.33;;;;;;;-0.40;100.00;102886.47;5054539;28;20035;-52
2023/04/03 00:20:34;;;;;;;23.40;19.23;;;;;;;-0.37;100.00;102890.25;5054129;28;20107;-53
2023/04/03 00:23:01;;;;;;;22.00;18.00;;;;;;;-0.32;100.00;102887.31;5054429;28;20070;-52
2023/04/03 00:25:26;;;;;;;23.15;17.38;;;;;;;-0.30;100.00;102895.97;5054404;28;20442;-52
2023/04/03 00:27:52;;;;;;;21.95;17.92;;;;;;;-0.37;100.00;102894.44;5054369;28;20461;-52
2023/04/03 00:30:19;;;;;;;19.63;15.90;;;;;;;-0.46;100.00;102893.44;5054665;28;20051;-52
2023/04/03 00:32:44;;;;;;;22.05;18.08;;;;;;;-0.36;100.00;102881.91;5054508;28;20049;-53
2023/04/03 00:35:10;;;;;;;20.55;17.17;;;;;;;-0.46;100.00;102889.28;5053787;28;20059;-53
2023/04/03 00:37:36;;;;;;;21.23;15.13;;;;;;;-0.60;100.00;102891.97;5054476;28;20017;-51
2023/04/03 00:40:02;;;;;;;22.63;17.10;;;;;;;-0.50;100.00;102895.63;5053916;28;20373;-52
2023/04/03 00:42:28;;;;;;;23.05;18.35;;;;;;;-0.51;100.00;102887.88;5053923;28;20029;-52
2023/04/03 00:44:56;;;;;;;18.33;16.25;;;;;;;-0.54;100.00;102905.28;5054366;28;20031;-53
2023/04/03 00:47:22;;;;;;;22.88;17.45;;;;;;;-0.54;100.00;102906.19;5053646;28;20029;-52
2023/04/03 00:49:48;;;;;;;21.88;18.25;;;;;;;-0.48;100.00;102908.47;5054266;28;20044;-53
2023/04/03 00:52:17;;;;;;;24.48;17.73;;;;;;;-0.50;100.00;102913.38;5053923;28;20029;-52
2023/04/03 00:54:45;;;;;;;22.98;18.92;;;;;;;-0.43;100.00;102914.91;5053212;28;20027;-51
2023/04/03 00:57:11;;;;;;;20.20;16.38;;;;;;;-0.71;100.00;102909.44;5053981;28;20036;-53
2023/04/03 00:59:43;;;;;;;19.40;15.77;;;;;;;-0.76;100.00;102910.56;5054252;28;20021;-52
2023/04/03 01:02:09;;;;;;;21.48;16.70;;;;;;;-0.88;100.00;102906.69;5052710;28;20412;-53
2023/04/03 01:04:36;;;;;;;19.38;17.08;;;;;;;-0.85;100.00;102912.09;5053944;28;20048;-53
2023/04/03 01:07:06;;;;;;;23.17;18.90;;;;;;;-0.78;100.00;102912.00;5053450;28;20100;-52
2023/04/03 01:09:33;;;;;;;24.63;19.90;;;;;;;-0.79;100.00;102902.63;5053751;28;20354;-53
2023/04/03 01:12:20;;;;;;;24.50;19.08;;;;;;;-0.76;100.00;102913.09;5053816;28;20550;-53
2023/04/03 01:14:49;;;;;;;22.90;17.48;;;;;;;-0.92;100.00;102909.63;5053557;28;20028;-52
2023/04/03 01:17:30;;;;;;;20.55;17.90;;;;;;;-0.89;100.00;102907.41;5052608;28;20500;-52
2023/04/03 01:20:23;;;;;;;24.33;17.55;;;;;;;-0.90;100.00;102903.09;5053582;28;20044;-52
2023/04/03 01:23:13;;;;;;;21.23;18.75;;;;;;;-0.83;100.00;102905.56;5052884;28;20027;-51
2023/04/03 01:25:40;;;;;;;25.13;19.48;;;;;;;-0.77;100.00;102910.41;5053924;28;20464;-53
2023/04/03 01:28:08;;;;;;;22.17;18.90;;;;;;;-0.77;100.00;102911.28;5053220;28;20495;-53
2023/04/03 01:30:39;;;;;;;25.67;19.00;;;;;;;-0.71;100.00;102917.03;5052864;28;20113;-53
2023/04/03 01:33:05;;;;;;;21.90;18.30;;;;;;;-0.70;100.00;102912.84;5052997;28;20487;-53
2023/04/03 01:35:30;;;;;;;26.58;17.88;;;;;;;-0.74;100.00;102916.66;5053295;28;20045;-52
2023/04/03 01:37:55;;;;;;;21.08;17.75;;;;;;;-0.77;100.00;102913.81;5052415;28;20392;-51
2023/04/03 01:40:21;;;;;;;22.85;18.50;;;;;;;-0.77;100.00;102910.41;5053458;28;20021;-52
2023/04/03 01:42:47;;;;;;;13.23;7.35;;;;;;;-0.69;100.00;102907.94;5052986;28;20479;-51
2023/04/03 01:45:12;;;;;;;18.52;16.20;;;;;;;-0.81;100.00;102913.31;5052662;28;20029;-53
2023/04/03 01:47:37;;;;;;;18.80;16.00;;;;;;;-0.85;100.00;102914.63;5053447;28;20057;-53
2023/04/03 01:50:03;;;;;;;19.38;15.43;;;;;;;-0.87;100.00;102911.03;5052653;28;20078;-53
2023/04/03 01:52:28;;;;;;;19.50;15.75;;;;;;;-0.85;100.00;102913.00;5052596;28;20036;-52
2023/04/03 01:54:54;;;;;;;19.83;17.77;;;;;;;-0.77;100.00;102916.34;5052727;28;20115;-52
2023/04/03 01:57:19;;;;;;;26.73;17.10;;;;;;;-0.81;100.00;102913.31;5052912;28;20025;-53
2023/04/03 01:59:44;;;;;;;20.58;16.33;;;;;;;-0.80;100.00;102915.13;5052391;28;20028;-52
2023/04/03 02:02:12;;;;;;;22.70;17.75;;;;;;;-0.73;100.00;102918.47;5052656;28;20493;-53
2023/04/03 02:04:37;;;;;;;20.73;16.20;;;;;;;-0.81;100.00;102914.22;5052716;28;20041;-52
2023/04/03 02:07:02;;;;;;;19.67;15.77;;;;;;;-0.78;100.00;102917.09;5051979;28;20021;-52
2023/04/03 02:09:28;;;;;;;20.65;15.00;;;;;;;-0.95;100.00;102919.41;5052833;28;20033;-52
2023/04/03 02:11:53;;;;;;;18.10;14.90;;;;;;;-0.98;100.00;102921.59;5052075;28;20103;-53
2023/04/03 02:14:18;;;;;;;21.10;16.33;;;;;;;-0.91;100.00;102919.03;5052727;28;20025;-53
2023/04/03 02:16:44;;;;;;;20.52;15.90;;;;;;;-0.94;100.00;102921.19;5052828;28;20020;-52
2023/04/03 02:19:09;;;;;;;18.92;14.75;;;;;;;-0.98;100.00;102921.59;5051738;28;20031;-52
2023/04/03 02:21:35;;;;;;;18.08;15.00;;;;;;;-1.00;100.00;102919.78;5052666;28;20057;-52
2023/04/03 02:24:00;;;;;;;20.10;15.45;;;;;;;-1.08;100.00;102920.59;5052304;28;20025;-54
2023/04/03 02:26:25;;;;;;;18.73;15.10;;;;;;;-1.11;100.00;102922.81;5051921;28;20154;-52
2023/04/03 02:28:51;;;;;;;21.52;14.90;;;;;;;-1.17;100.00;102922.13;5052277;28;20021;-53
2023/04/03 02:31:17;;;;;;;19.65;15.40;;;;;;;-1.17;100.00;102922.13;5052302;28;20025;-51
2023/04/03 02:33:42;;;;;;;19.88;14.43;;;;;;;-1.18;100.00;102925.38;5051957;28;20033;-52
2023/04/03 02:36:11;;;;;;;17.92;14.75;;;;;;;-1.20;100.00;102926.81;5052274;28;20033;-52
2023/04/03 02:38:36;;;;;;;16.20;14.07;;;;;;;-1.19;100.00;102934.59;5052225;28;20021;-51
2023/04/03 02:41:04;;;;;;;17.30;13.55;;;;;;;-1.13;100.00;102929.31;5051877;28;20024;-52
2023/04/03 02:43:30;;;;;;;;;;;;;;;-1.07;100.00;102942.66;5053127;28;20029;-52
2023/04/03 02:45:55;;;;;;;17.67;14.05;;;;;;;-1.08;100.00;102938.31;5052016;28;19920;-53
2023/04/03 02:48:20;;;;;;;19.08;12.80;;;;;;;-1.16;100.00;102941.63;5051935;28;20075;-53
2023/04/03 02:50:46;;;;;;;16.45;11.77;;;;;;;-1.04;100.00;102939.56;5052552;28;20025;-52
2023/04/03 02:53:11;;;;;;;19.98;12.23;;;;;;;-0.95;100.00;102935.50;5051833;28;20040;-53
2023/04/03 02:55:36;;;;;;;15.02;11.75;;;;;;;-0.89;100.00;102940.31;5052102;28;20060;-52
2023/04/03 02:58:03;;;;;;;20.67;11.77;;;;;;;-0.89;100.00;102937.78;5052255;28;20392;-53
2023/04/03 03:00:32;;;;;;;19.60;10.77;;;;;;;-0.80;100.00;102950.56;5052160;28;20017;-53
2023/04/03 03:02:57;;;;;;;13.73;9.82;;;;;;;-0.75;100.00;102950.34;5051593;28;20041;-52
2023/04/03 03:05:22;;;;;;;15.18;10.30;;;;;;;-0.64;100.00;102945.56;5052326;28;20079;-52
2023/04/03 03:07:48;;;;;;;13.93;9.80;;;;;;;-0.72;100.00;102938.00;5051995;28;20083;-53
2023/04/03 03:10:13;;;;;;;14.68;9.55;;;;;;;-0.65;100.00;102943.75;5051749;28;20021;-52
2023/04/03 03:12:40;;;;;;;13.45;9.07;;;;;;;-0.53;100.00;102932.41;5052403;28;20048;-52
2023/04/03 03:15:06;;;;;;;13.48;9.18;;;;;;;-0.54;100.00;102938.22;5051308;28;20102;-53
2023/04/03 03:17:31;;;;;;;14.30;8.60;;;;;;;-0.50;100.00;102937.81;5052127;28;20083;-53
2023/04/03 03:19:57;;;;;;;13.18;8.65;;;;;;;-0.56;100.00;102932.97;5051863;28;20476;-53
2023/04/03 03:22:22;;;;;;;16.13;8.95;;;;;;;-0.58;100.00;102936.06;5051447;28;20075;-53
2023/04/03 03:24:47;;;;;;;11.50;8.13;;;;;;;-0.50;100.00;102941.22;5052309;28;20032;-52
2023/04/03 03:27:13;;;;;;;14.73;8.18;;;;;;;-0.54;100.00;102943.28;5051842;28;20115;-52
2023/04/03 03:29:38;;;;;;;12.80;8.27;;;;;;;-0.45;100.00;102945.88;5051608;28;20025;-53
2023/04/03 03:32:03;;;;;;;15.63;8.63;;;;;;;-0.55;100.00;102944.91;5051873;28;20477;-52
2023/04/03 03:34:29;;;;;;;15.63;8.13;;;;;;;-0.53;100.00;102940.91;5051980;28;20029;-52
2023/04/03 03:36:54;;;;;;;13.50;8.25;;;;;;;-0.52;100.00;102949.41;5051024;28;20021;-53
2023/04/03 03:39:20;;;;;;;11.35;7.57;;;;;;;-0.49;100.00;102949.75;5052175;28;20049;-52
2023/04/03 03:41:45;;;;;;;13.55;7.43;;;;;;;-0.51;100.00;102948.66;5053928;28;20376;-52
2023/04/03 03:44:10;;;;;;;12.93;7.07;;;;;;;-0.53;100.00;102962.78;5054696;28;20025;-52
2023/04/03 03:46:36;;;;;;;12.95;7.20;;;;;;;-0.50;100.00;102956.44;5055466;28;20526;-53
2023/04/03 03:49:01;;;;;;;12.07;6.80;;;;;;;-0.54;100.00;102961.91;5055027;28;20033;-53
2023/04/03 03:51:29;;;;;;;11.70;6.32;;;;;;;-0.49;100.00;102964.94;5054844;28;20376;-52
2023/04/03 03:53:55;;;;;;;12.52;6.68;;;;;;;-0.56;100.00;102973.50;5055189;28;20064;-53
2023/04/03 03:56:20;;;;;;;10.55;6.75;;;;;;;-0.51;100.00;102967.28;5055298;28;20476;-52
2023/04/03 03:58:45;;;;;;;11.15;6.68;;;;;;;-0.51;100.00;102972.34;5054756;28;20021;-52
2023/04/03 04:01:11;;;;;;;12.00;6.18;;;;;;;-0.54;100.00;102971.16;5054692;28;20029;-55
2023/04/03 04:03:36;;;;;;;9.18;6.32;;;;;;;-0.58;100.00;102971.53;5055074;28;20097;-53
2023/04/03 04:06:02;;;;;;;12.13;6.07;;;;;;;-0.62;100.00;102980.44;5054231;28;20031;-52
2023/04/03 04:08:27;;;;;;;10.55;6.10;;;;;;;-0.71;100.00;102977.81;5055036;28;20021;-52
2023/04/03 04:10:52;;;;;;;10.10;6.15;;;;;;;-0.73;100.00;102968.22;5054983;28;20064;-53
2023/04/03 04:13:18;;;;;;;14.07;6.55;;;;;;;-0.80;100.00;102970.81;5054028;28;20037;-53
2023/04/03 04:15:43;;;;;;;11.02;6.22;;;;;;;-0.88;100.00;102972.50;5055030;28;20083;-52
2023/04/03 04:18:09;;;;;;;13.15;6.47;;;;;;;-0.93;100.00;102974.56;5054449;28;20032;-52
2023/04/03 04:20:34;;;;;;;11.73;6.32;;;;;;;-0.89;100.00;102970.69;5054367;28;20103;-53
2023/04/03 04:22:59;;;;;;;8.80;5.97;;;;;;;-0.98;100.00;102970.59;5054765;28;20031;-54
2023/04/03 04:25:25;;;;;;;11.80;6.72;;;;;;;-1.03;100.00;102972.63;5054215;28;20021;-53
2023/04/03 04:27:50;;;;;;;14.23;7.10;;;;;;;-1.01;100.00;102972.78;5054741;28;20040;-54
2023/04/03 04:30:15;;;;;;;13.00;6.68;;;;;;;-0.86;100.00;102969.41;5054562;28;20142;-53
2023/04/03 04:32:41;;;;;;;11.05;6.47;;;;;;;-0.97;100.00;102968.97;5053965;28;20025;-53
2023/04/03 04:35:06;;;;;;;12.23;6.00;;;;;;;-0.86;100.00;102968.53;5054258;28;20040;-52
2023/04/03 04:37:32;;;;;;;10.15;5.90;;;;;;;-0.95;100.00;102967.53;5054561;28;20453;-53
2023/04/03 04:39:57;;;;;;;11.23;6.10;;;;;;;-0.89;100.00;102973.22;5053684;28;20021;-53
2023/04/03 04:42:22;;;;;;;9.65;5.90;;;;;;;-0.87;100.00;102974.31;5054665;28;20033;-53
2023/04/03 04:44:48;;;;;;;12.50;6.40;;;;;;;-0.86;100.00;102976.13;5054275;28;20543;-53
2023/04/03 04:47:13;;;;;;;14.20;6.60;;;;;;;-0.84;100.00;102977.16;5053526;28;20032;-53
2023/04/03 04:49:38;;;;;;;10.18;5.70;;;;;;;-0.86;100.00;102982.06;5054544;28;20029;-52
2023/04/03 04:52:04;;;;;;;13.40;6.50;;;;;;;-0.84;100.00;102983.16;5053236;28;20029;-53
2023/04/03 04:54:30;;;;;;;14.05;6.38;;;;;;;-0.86;100.00;102986.25;5053760;28;20159;-52
2023/04/03 04:56:55;;;;;;;9.63;6.55;;;;;;;-0.88;100.00;102982.63;5053894;28;20104;-54
2023/04/03 04:59:21;;;;;;;12.13;6.13;;;;;;;-0.87;100.00;102989.50;5054049;28;20472;-54
2023/04/03 05:01:46;;;;;;;12.48;6.60;;;;;;;-0.86;100.00;102997.25;5053336;28;20480;-53
2023/04/03 05:04:12;;;;;;;11.32;5.80;;;;;;;-0.90;100.00;102996.78;5053708;28;20025;-53
2023/04/03 05:06:38;;;;;;;11.60;6.25;;;;;;;-0.86;100.00;102993.84;5053674;28;20483;-53
2023/04/03 05:09:03;;;;;;;11.23;5.90;;;;;;;-0.86;100.00;102997.25;5053259;28;20025;-53
2023/04/03 05:11:29;;;;;;;16.02;5.97;;;;;;;-0.91;100.00;102992.44;5053750;28;20029;-53
2023/04/03 05:13:55;;;;;;;10.68;6.13;;;;;;;-0.98;100.00;102995.91;5053353;28;20017;-53
2023/04/03 05:16:20;;;;;;;12.35;6.43;;;;;;;-0.92;100.00;103001.63;5053462;28;20029;-53
2023/04/03 05:18:45;;;;;;;17.60;7.40;;;;;;;-0.92;100.00;102996.56;5053809;28;20542;-57
2023/04/03 05:21:10;;;;;;;11.93;6.28;;;;;;;-0.89;100.00;103001.06;5053141;28;20029;-53
2023/04/03 05:23:36;;;;;;;12.95;6.15;;;;;;;-0.90;100.00;102996.78;5052964;28;20025;-53
2023/04/03 05:26:01;;;;;;;14.38;6.45;;;;;;;-0.92;100.00;103000.75;5053388;28;20051;-52
2023/04/03 05:28:26;;;;;;;13.23;5.75;;;;;;;-0.92;100.00;103003.28;5053582;28;20029;-52
2023/04/03 05:30:56;;;;;;;13.32;5.55;;;;;;;-0.81;100.00;103010.44;5053000;28;20021;-53
2023/04/03 05:33:23;;;;;;;11.35;6.07;;;;;;;-0.82;100.00;103003.56;5053412;28;20025;-52
2023/04/03 05:35:48;;;;;;;9.30;5.60;;;;;;;-0.83;100.00;103004.28;5052560;28;20078;-53
2023/04/03 05:38:13;;;;;;;12.93;5.78;;;;;;;-0.79;100.00;103013.13;5053173;28;20029;-53
2023/04/03 05:40:39;;;;;;;10.88;5.47;;;;;;;-0.79;100.00;103006.41;5053284;28;20432;-53
2023/04/03 05:43:04;;;;;;;11.68;5.78;;;;;;;-0.77;100.00;103011.69;5052204;28;20017;-51
2023/04/03 05:45:30;;;;;;;13.43;5.82;;;;;;;-0.79;100.00;103014.03;5053462;28;20032;-54
2023/04/03 05:47:55;;;;;;;14.77;6.25;;;;;;;-0.69;100.00;103021.00;5052999;28;20029;-54
2023/04/03 05:50:20;;;;;;;11.60;5.60;;;;;;;-0.68;100.00;103018.63;5052344;28;20013;-52
2023/04/03 05:52:49;;;;;;;13.60;5.95;;;;;;;-0.61;100.00;103020.22;5053040;28;20500;-53
2023/04/03 05:55:15;;;;;;;10.40;5.22;;;;;;;-0.56;100.00;103025.78;5052684;28;20040;-53
2023/04/03 05:57:40;;;;;;;12.00;5.43;;;;;;;-0.61;100.00;103026.91;5052510;28;20024;-53
2023/04/03 06:00:09;;;;;;;9.88;5.10;;;;;;;-0.55;100.00;103030.13;5052784;28;20104;-53
2023/04/03 06:02:35;;;;;;;9.02;5.38;;;;;;;-0.58;100.00;103025.63;5052484;28;20048;-52
2023/04/03 06:05:01;;;;;;;10.25;5.13;;;;;;;-0.52;100.00;103027.91;5051359;28;20571;-53
2023/04/03 06:07:28;;;;;;;10.35;5.50;;;;;;;-0.53;100.00;103023.59;5053098;28;20522;-53
2023/04/03 06:09:55;;;;;;;14.02;5.75;;;;;;;-0.53;100.00;103033.72;5052648;28;20116;-54
2023/04/03 06:12:21;;;;;;;15.27;5.55;;;;;;;-0.44;100.00;103024.63;5052285;28;20463;-51
2023/04/03 06:14:47;;;;;;;9.50;4.97;;;;;;;-0.40;100.00;103031.81;5052756;28;20033;-53
2023/04/03 06:17:14;;;;;;;11.10;5.10;;;;;;;-0.38;100.00;103029.44;5052280;28;20434;-52
2023/04/03 06:19:40;;;;;;;9.27;4.97;;;;;;;-0.32;100.00;103041.88;5052185;28;20521;-53
2023/04/03 06:22:06;;;;;;;12.18;5.03;;;;;;;-0.29;100.00;103038.03;5052248;28;20024;-53
2023/04/03 06:24:31;;;;;;;10.57;4.78;;;;;;;-0.26;100.00;103042.53;5052588;28;20045;-52
2023/04/03 06:26:57;;;;;;;10.65;5.28;;;;;;;-0.22;100.00;103045.59;5051917;28;20044;-53
2023/04/03 06:29:23;;;;;;;15.68;5.40;;;;;;;-0.20;100.00;103041.56;5052693;28;20032;-52
2023/04/03 06:31:49;;;;;;;12.48;5.10;;;;;;;-0.14;100.00;103046.41;5052365;28;20021;-53
2023/04/03 06:34:16;;;;;;;11.43;5.10;;;;;;;-0.09;100.00;103049.44;5051787;28;20033;-52
2023/04/03 06:36:42;;;;;;;11.48;5.15;;;;;;;-0.06;100.00;103055.75;5052671;28;20029;-54
2023/04/03 06:39:13;;;;;;;10.93;5.00;;;;;;;0.03;100.00;103052.38;5051490;28;20036;-53
2023/04/03 06:41:38;;;;;;;13.48;5.60;;;;;;;0.06;100.00;103053.63;5052585;28;20029;-53
2023/04/03 06:44:03;;;;;;;11.07;5.38;;;;;;;0.10;100.00;103052.31;5052295;28;20023;-53
2023/04/03 06:46:29;;;;;;;11.95;5.55;;;;;;;0.10;100.00;103055.75;5051618;28;20380;-53
2023/04/03 06:48:54;;;;;;;11.48;5.60;;;;;;;0.21;100.00;103056.91;5052360;28;20096;-54
2023/04/03 06:51:24;;;;;;;14.00;5.82;;;;;;;0.26;100.00;103060.84;5052446;28;20021;-50
2023/04/03 06:53:51;;;;;;;8.98;4.97;;;;;;;0.32;100.00;103066.56;5051906;28;20028;-52
2023/04/03 06:56:17;;;;;;;7.43;3.30;;;;;;;0.37;100.00;103063.63;5052045;28;20530;-53
2023/04/03 06:58:43;;;;;;;10.20;4.93;;;;;;;0.45;100.00;103068.78;5052098;28;20017;-53
2023/04/03 07:01:10;;;;;;;12.90;5.25;;;;;;;0.54;100.00;103068.84;5051439;28;20040;-53
2023/04/03 07:03:36;;;;;;;11.50;5.70;;;;;;;0.58;100.00;103071.00;5052036;28;20060;-54
2023/04/03 07:06:03;;;;;;;15.65;5.65;;;;;;;0.68;100.00;103071.94;5051927;28;20017;-54
2023/04/03 07:08:29;;;;;;;14.15;4.97;;;;;;;0.71;100.00;103073.19;5051876;28;20044;-50
2023/04/03 07:10:54;;;;;;;12.13;5.05;;;;;;;0.79;100.00;103079.06;5051935;28;20429;-53
2023/04/03 07:13:20;;;;;;;14.98;5.00;;;;;;;0.82;100.00;103075.19;5052021;28;20032;-53
2023/04/03 07:15:45;;;;;;;10.63;4.82;;;;;;;0.89;100.00;103076.75;5053670;28;20412;-51
2023/04/03 07:18:10;;;;;;;14.32;5.30;;;;;;;0.95;100.00;103079.03;5055255;28;20048;-53
2023/04/03 07:20:36;;;;;;;10.80;5.10;;;;;;;1.01;100.00;103084.75;5055813;28;20100;-53
2023/04/03 07:23:01;;;;;;;13.82;5.32;;;;;;;1.05;100.00;103083.44;5055214;28;20021;-52
2023/04/03 07:25:27;;;;;;;15.93;5.68;;;;;;;1.22;100.00;103081.00;5056043;28;20064;-53
2023/04/03 07:27:54;;;;;;;16.13;5.28;;;;;;;1.23;100.00;103087.88;5055649;28;20053;-52
2023/04/03 07:30:19;;;;;;;10.98;5.05;;;;;;;1.30;100.00;103089.41;5055079;28;20027;-52
2023/04/03 07:32:45;;;;;;;12.93;4.93;;;;;;;1.36;100.00;103090.03;5055962;28;20024;-53
2023/04/03 07:35:11;;;;;;;11.85;5.03;;;;;;;1.47;100.00;103098.75;5055298;28;20389;-53
2023/04/03 07:37:36;;;;;;;10.05;4.97;;;;;;;1.53;100.00;103101.94;5055284;28;20178;-53
2023/04/03 07:40:03;;;;;;;12.50;4.60;;;;;;;1.56;100.00;103102.28;5055514;28;20159;-53
2023/04/03 07:42:28;;;;;;;15.63;5.30;;;;;;;1.67;100.00;103108.44;5054842;28;20067;-53
2023/04/03 07:44:54;;;;;;;12.20;4.85;;;;;;;1.75;100.00;103104.13;5055156;28;20153;-53
2023/04/03 07:47:20;;;;;;;11.75;4.50;;;;;;;1.83;100.00;103102.38;5055237;28;20071;-54
2023/04/03 07:49:45;;;;;;;11.05;5.00;;;;;;;1.90;100.00;103105.69;5054781;28;20035;-53
2023/04/03 07:52:11;;;;;;;13.15;4.68;;;;;;;1.93;100.00;103103.44;5054889;28;20049;-52
2023/04/03 07:54:37;;;;;;;14.95;5.03;;;;;;;2.02;100.00;103097.50;5055318;28;20468;-53
2023/04/03 07:57:02;;;;;;;11.85;4.00;;;;;;;2.14;100.00;103098.72;5054463;28;20029;-54
2023/04/03 07:59:28;;;;;;;14.05;4.55;;;;;;;2.21;100.00;103102.75;5055219;28;20041;-53
2023/04/03 08:01:53;;;;;;;11.38;4.22;;;;;;;2.33;100.00;103105.66;5054888;28;20049;-53
2023/04/03 08:04:18;;;;;;;15.05;4.72;;;;;;;2.41;100.00;103105.66;5054484;28;20060;-52
2023/04/03 08:06:44;;;;;;;10.80;4.05;;;;;;;2.49;98.72;103114.03;5055223;28;20464;-53
2023/04/03 08:09:09;;;;;;;13.57;4.63;;;;;;;2.60;99.45;103104.94;5054891;28;20083;-53
2023/04/03 08:11:36;;;;;;;12.15;3.95;;;;;;;2.69;98.05;103107.50;5054470;28;20025;-52
2023/04/03 08:14:02;;;;;;;9.52;4.38;;;;;;;2.76;97.55;103105.69;5054524;28;20499;-53
2023/04/03 08:16:27;;;;;;;9.40;3.97;;;;;;;2.90;96.49;103104.47;5054755;28;20033;-53
2023/04/03 08:18:54;;;;;;;10.98;4.25;;;;;;;2.98;93.61;103102.66;5054571;28;20100;-54
2023/04/03 08:21:19;;;;;;;12.48;4.70;;;;;;;3.10;94.45;103102.97;5054978;28;20021;-53
2023/04/03 08:23:48;;;;;;;8.98;3.80;;;;;;;3.17;91.03;103105.34;5054486;28;20036;-54
2023/04/03 08:26:16;;;;;;;7.88;3.78;;;;;;;3.24;89.58;103110.28;5053367;28;20025;-53
2023/04/03 08:28:42;;;;;;;;;;;;;;;3.37;94.43;103103.81;5054783;28;20025;-54
2023/04/03 08:31:12;;;;;;;9.68;3.97;;;;;;;3.50;91.67;103111.88;5054354;28;19996;-54
2023/04/03 08:33:39;;;;;;;9.52;4.25;;;;;;;3.63;90.28;103104.63;5054224;28;20028;-54
2023/04/03 08:36:06;;;;;;;7.33;3.47;;;;;;;3.73;86.47;103120.78;5054489;28;20029;-54
2023/04/03 08:38:32;;;;;;;10.60;3.67;;;;;;;3.80;84.53;103107.88;5054004;28;20036;-52
2023/04/03 08:41:23;;;;;;;8.73;3.45;;;;;;;3.97;83.81;103116.19;5053949;28;20021;-52
2023/04/03 08:44:27;;;;;;;10.00;3.50;;;;;;;4.09;83.08;103117.31;5050062;28;20049;-53
2023/04/03 08:47:18;;;;;;;8.80;3.13;;;;;;;4.18;79.96;103112.19;5052526;28;20032;-52
2023/04/03 08:50:01;;;;;;;13.68;4.18;;;;;;;4.27;78.46;103120.66;5054272;28;20086;-53
2023/04/03 08:52:47;;;;;;;10.18;3.15;;;;;;;4.29;75.30;103122.59;5054189;28;20040;-55
2023/04/03 08:55:32;;;;;;;7.40;3.65;;;;;;;4.41;74.65;103116.84;5053856;28;20029;-55
2023/04/03 08:58:25;;;;;;;7.43;2.60;;;;;;;4.41;69.63;103119.38;5053654;28;20556;-55
2023/04/03 09:00:56;;;;;;;8.77;2.95;;;;;;;4.51;69.71;103122.03;5053433;28;20068;-55
2023/04/03 09:03:23;;;;;;;8.88;3.47;;;;;;;4.61;71.40;103128.88;5053820;28;20170;-55
2023/04/03 09:05:55;;;;;;;6.13;2.30;;;;;;;4.72;66.34;103124.72;5053857;28;20029;-56
2023/04/03 09:08:36;;;;;;;7.72;2.78;;;;;;;4.77;63.33;103120.94;5053360;28;20029;-56
2023/04/03 09:11:44;;;;;;;7.13;2.35;;;;;;;4.89;65.28;103119.50;5052583;28;20060;-56
2023/04/03 09:14:42;;;;;;;5.93;2.40;;;;;;;5.06;66.16;103115.88;5053066;28;20071;-55
2023/04/03 09:17:41;;;;;;;6.18;2.38;;;;;;;5.34;66.99;103122.50;5050460;28;20044;-56
2023/04/03 09:20:26;;;;;;;6.40;2.20;;;;;;;5.79;59.56;103117.03;5053239;28;20052;-54
2023/04/03 09:22:53;;;;;;;4.72;1.90;;;;;;;5.73;56.67;103124.16;5052651;28;20037;-55
2023/04/03 09:25:36;;;;;;;6.15;2.38;;;;;;;6.23;61.92;103126.72;5053669;28;20113;-55
2023/04/03 09:28:02;;;;;;;6.20;2.13;;;;;;;5.98;55.63;103128.81;5052599;28;20373;-54
2023/04/03 09:30:28;;;;;;;4.50;2.13;;;;;;;5.94;54.21;103128.56;5053392;28;20476;-53
2023/04/03 09:32:56;;;;;;;3.97;1.80;;;;;;;6.02;53.00;103126.69;5053198;28;20025;-52
2023/04/03 09:35:21;;;;;;;;;;;;;;;6.29;59.87;103126.31;5053245;28;20033;-54
2023/04/03 09:37:53;;;;;;;4.28;1.40;;;;;;;6.09;49.24;103133.22;5053514;28;19935;-54
2023/04/03 09:40:34;;;;;;;4.88;1.90;;;;;;;6.13;49.28;103117.34;5053156;28;20025;-54
2023/04/03 09:43:02;;;;;;;4.80;1.88;;;;;;;6.23;49.46;103108.78;5052613;28;20025;-54
2023/04/03 09:45:30;;;;;;;4.13;2.00;;;;;;;6.50;48.34;103106.75;5053173;28;20491;-54
2023/04/03 09:48:13;;;;;;;3.58;1.70;;;;;;;6.71;50.48;103105.94;5052705;28;20122;-55
2023/04/03 09:50:51;;;;;;;3.83;1.55;;;;;;;7.08;46.36;103105.47;5052815;28;20029;-55
2023/04/03 09:53:38;;;;;;;2.55;1.20;;;;;;;7.21;43.76;103099.63;5052817;28;20029;-55
2023/04/03 09:56:21;;;;;;;3.15;1.10;;;;;;;7.80;43.01;103096.50;5052288;28;20419;-53
2023/04/03 09:59:00;;;;;;;2.45;1.10;;;;;;;8.32;39.88;103100.47;5053258;28;20025;-55
2023/04/03 10:01:29;;;;;;;2.95;1.30;;;;;;;8.94;38.35;103086.16;5052567;28;20400;-55
2023/04/03 10:04:15;;;;;;;5.28;1.05;;;;;;;9.48;40.68;103093.44;5052193;28;20108;-55
2023/04/03 10:06:53;;;;;;;4.90;1.38;;;;;;;9.72;37.78;103088.19;5052880;28;20029;-53
2023/04/03 10:09:19;;;;;;;;;;;;;;;10.17;45.73;103087.00;5053195;28;20035;-55
2023/04/03 10:11:56;;;;;;;2.38;1.10;;;;;;;10.34;38.74;103082.03;5052479;28;19995;-56
2023/04/03 10:14:21;;;;;;;2.47;1.10;;;;;;;10.36;33.99;103080.50;5052941;28;20029;-55
2023/04/03 10:17:14;;;;;;;3.13;1.15;;;;;;;10.77;38.74;103081.41;5052521;28;20116;-55
2023/04/03 10:20:06;;;;;;;2.92;1.20;;;;;;;11.16;38.08;103088.25;5053029;28;20029;-55
2023/04/03 10:22:50;;;;;;;3.03;1.02;;;;;;;11.16;38.59;103077.91;5044043;28;20474;-54
2023/04/03 10:25:43;;;;;;;3.30;1.20;;;;;;;11.88;37.77;103083.16;5051770;28;20029;-52
2023/04/03 10:28:25;;;;;;;2.22;0.93;;;;;;;11.67;33.27;103069.81;5052354;28;20031;-54
2023/04/03 10:31:06;;;;;;;3.22;0.95;;;;;;;11.82;32.99;103068.16;5052432;28;20492;-55
2023/04/03 10:33:54;;;;;;;4.55;0.95;;;;;;;11.80;29.09;103058.53;5052671;28;20039;-54
2023/04/03 10:36:45;;;;;;;2.08;0.93;;;;;;;12.39;30.76;103054.25;5052575;28;20033;-53
2023/04/03 10:39:40;;;;;;;1.73;0.80;;;;;;;12.12;31.08;103057.94;5051520;28;20040;-54
2023/04/03 10:42:26;;;;;;;4.18;1.58;;;;;;;12.33;33.71;103052.19;5052213;28;20033;-53
2023/04/03 10:45:06;;;;;;;3.00;1.10;;;;;;;12.64;32.12;103056.53;5052628;28;20104;-54
2023/04/03 10:47:44;;;;;;;4.15;1.10;;;;;;;12.63;28.81;103047.91;5052141;28;20021;-53
2023/04/03 10:50:19;;;;;;;2.25;1.10;;;;;;;12.55;29.87;103041.41;5053209;28;20091;-53
2023/04/03 10:53:08;;;;;;;4.30;1.58;;;;;;;12.73;28.15;103035.47;5055943;28;20461;-53
2023/04/03 10:55:36;;;;;;;6.88;2.40;;;;;;;13.42;29.66;103036.69;5056670;28;20036;-52
2023/04/03 10:58:04;;;;;;;3.38;1.00;;;;;;;13.21;27.15;103032.91;5055886;28;20025;-52
2023/04/03 11:00:43;;;;;;;3.20;1.15;;;;;;;13.88;28.78;103029.50;5055821;28;20380;-53
2023/04/03 11:03:25;;;;;;;3.10;1.10;;;;;;;14.49;28.01;103034.28;5055803;28;20554;-52
2023/04/03 11:05:55;;;;;;;2.70;0.98;;;;;;;14.11;27.68;103017.69;5056227;28;20094;-53
2023/04/03 11:08:39;;;;;;;1.88;0.90;;;;;;;13.45;28.29;103028.19;5055757;28;20046;-52
2023/04/03 11:11:29;;;;;;;3.55;1.00;;;;;;;13.60;29.92;103020.34;5055557;28;20052;-53
2023/04/03 11:14:01;;;;;;;3.20;1.00;;;;;;;13.29;27.59;103023.84;5055481;28;20028;-52
2023/04/03 11:16:30;;;;;;;2.97;1.13;;;;;;;13.53;29.14;103026.91;5056223;28;20025;-53
2023/04/03 11:19:23;;;;;;;2.65;1.00;;;;;;;14.28;28.89;103016.84;5055476;28;20377;-53
2023/04/03 11:22:03;;;;;;;3.67;1.23;;;;;;;13.80;27.25;103022.25;5052538;28;20086;-53
2023/04/03 11:24:33;;;;;;;2.17;0.90;;;;;;;13.93;25.88;103021.16;5056098;28;20036;-53